Verkhniy Tagil, Russia
Current Conditions -  °F | °C
As of 8:30 AM on Sunday 25 Jan 2015 (Local Time) from USSS Reporting Station
Clear Clear  
Wind Chill: -13°   Ceiling: Unl
Heat Index:   Visibility: 6mi
Dew Point: -6°   Wind: 7mph
Humidity: 78%   Direction: 160°SSE
Pressure: 30.71"   Gusts: NA
Location:  57.38°N, 59.96°E
Report Text: USSS 250330Z 16003MPS CAVOK M18/M21 Q1040 76820350 NOSIG RMKQFE759
Loading
Personal Weather Stations






























Interactive Weather Map New forecast layout! Learn more

10-Day Weather Forecast

Advertisements
Track Severe Weather on mobile